Terminal Aerodrome Forecast
Issued by NWS Jackson, MS

Home | Current Version | Previous Version | Text Only | Print | Product List | Glossary On
Versions: 1 2 3 4 5 6 7 8 9 10 11 12 13 14 15 16 17
000
FTUS44 KJAN 031123
TAFHBG
TAF
KHBG 031123Z 0312/0412 22005KT P6SM SCT250
     FM031500 23012KT P6SM SCT050 BKN250
     FM040200 20010KT P6SM VCTS SCT035CB BKN080
     FM040600 18003KT P6SM -SHRA OVC035
     FM040900 19003KT P6SM OVC025=

USA.gov is the U.S. government's official web portal to all federal, state and local government web resources and services.